createdAt,value
2019-03-09T00:00:05.018Z,973.07
2019-03-09T00:01:04.971Z,973.01
2019-03-09T00:02:04.971Z,972.99
2019-03-09T00:03:04.972Z,972.98
2019-03-09T00:04:04.959Z,973.02
2019-03-09T00:05:04.983Z,972.99
2019-03-09T00:06:04.993Z,972.99
2019-03-09T00:07:04.947Z,972.97
2019-03-09T00:08:04.951Z,972.95
2019-03-09T00:09:04.944Z,972.92
2019-03-09T00:10:04.978Z,972.90
2019-03-09T00:11:04.940Z,972.85
2019-03-09T00:12:04.934Z,972.90
2019-03-09T00:13:04.926Z,972.87
2019-03-09T00:14:04.926Z,972.86
2019-03-09T00:15:04.942Z,972.85
2019-03-09T00:16:04.952Z,972.80
2019-03-09T00:17:04.911Z,972.74
2019-03-09T00:18:04.910Z,972.75
2019-03-09T00:19:04.905Z,972.70
2019-03-09T00:20:04.923Z,972.75
2019-03-09T00:21:04.897Z,972.73
2019-03-09T00:22:04.926Z,972.74
2019-03-09T00:23:04.892Z,972.73
2019-03-09T00:24:04.884Z,972.72
2019-03-09T00:25:04.914Z,972.69
2019-03-09T00:26:04.876Z,972.71
2019-03-09T00:27:04.875Z,972.78
2019-03-09T00:28:04.866Z,972.74
2019-03-09T00:29:04.872Z,972.83
2019-03-09T00:30:04.855Z,972.79
2019-03-09T00:31:04.892Z,972.85
2019-03-09T00:32:04.858Z,972.83
2019-03-09T00:33:04.851Z,972.82
2019-03-09T00:34:04.856Z,972.82
2019-03-09T00:35:04.851Z,972.72
2019-03-09T00:36:04.876Z,972.81
2019-03-09T00:37:04.832Z,972.78
2019-03-09T00:38:04.824Z,972.77
2019-03-09T00:39:04.828Z,972.73
2019-03-09T00:40:04.817Z,972.76
2019-03-09T00:41:05.805Z,972.75
2019-03-09T00:42:04.847Z,972.72
2019-03-09T00:43:04.813Z,972.75
2019-03-09T00:44:04.811Z,972.69
2019-03-09T00:45:04.795Z,972.73
2019-03-09T00:46:04.912Z,972.72
2019-03-09T00:47:04.807Z,972.74
2019-03-09T00:48:04.825Z,972.77
2019-03-09T00:49:04.798Z,972.75
2019-03-09T00:50:04.779Z,972.70
2019-03-09T00:51:04.807Z,972.70
2019-03-09T00:52:04.774Z,972.60
2019-03-09T00:53:04.803Z,972.73
2019-03-09T00:54:04.763Z,972.80
2019-03-09T00:55:04.757Z,972.76
2019-03-09T00:56:04.786Z,972.69
2019-03-09T00:57:04.747Z,972.71
2019-03-09T00:58:04.749Z,972.74
2019-03-09T00:59:04.748Z,972.72
2019-03-09T01:00:04.740Z,972.80
2019-03-09T01:01:04.772Z,972.70
2019-03-09T01:02:04.730Z,972.67
2019-03-09T01:03:04.731Z,972.61
2019-03-09T01:04:04.719Z,972.67
2019-03-09T01:05:04.717Z,972.60
2019-03-09T01:06:04.766Z,972.62
2019-03-09T01:07:04.712Z,972.63
2019-03-09T01:08:04.712Z,972.50
2019-03-09T01:09:04.698Z,972.52
2019-03-09T01:10:04.695Z,972.42
2019-03-09T01:11:04.739Z,972.44
2019-03-09T01:12:04.686Z,972.26
2019-03-09T01:13:04.697Z,972.31
2019-03-09T01:14:04.693Z,972.29
2019-03-09T01:15:06.247Z,972.20
2019-03-09T01:16:04.678Z,972.23
2019-03-09T01:17:05.747Z,972.17
2019-03-09T01:18:04.667Z,972.23
2019-03-09T01:19:04.665Z,972.20
2019-03-09T01:20:04.655Z,972.19
2019-03-09T01:21:04.659Z,972.20
2019-03-09T01:22:04.686Z,972.20
2019-03-09T01:23:04.650Z,972.12
2019-03-09T01:24:04.649Z,972.14
2019-03-09T01:25:04.637Z,972.09
2019-03-09T01:26:04.639Z,972.13
2019-03-09T01:27:04.633Z,972.11
2019-03-09T01:28:04.666Z,972.04
2019-03-09T01:29:04.628Z,972.12
2019-03-09T01:30:04.632Z,972.03
2019-03-09T01:31:04.622Z,972.00
2019-03-09T01:32:04.652Z,971.99
2019-03-09T01:33:04.608Z,971.98
2019-03-09T01:34:04.631Z,971.92
2019-03-09T01:35:04.601Z,971.94
2019-03-09T01:36:04.603Z,971.82
2019-03-09T01:37:05.379Z,971.92
2019-03-09T01:38:04.588Z,971.88
2019-03-09T01:39:04.625Z,971.92
2019-03-09T01:40:04.579Z,971.88
2019-03-09T01:41:04.570Z,971.86
2019-03-09T01:42:04.598Z,971.92
2019-03-09T01:43:04.572Z,971.89
2019-03-09T01:44:04.558Z,971.86
2019-03-09T01:45:04.585Z,971.73
2019-03-09T01:46:04.590Z,971.66
2019-03-09T01:47:04.578Z,971.58
2019-03-09T01:48:04.542Z,971.68
2019-03-09T01:49:04.542Z,971.62
2019-03-09T01:50:04.536Z,971.58
2019-03-09T01:51:04.530Z,971.63
2019-03-09T01:52:04.566Z,971.54
2019-03-09T01:53:04.527Z,971.52
2019-03-09T01:54:04.518Z,971.58
2019-03-09T01:55:04.518Z,971.53
2019-03-09T01:56:04.510Z,971.49
2019-03-09T01:57:04.534Z,971.50
2019-03-09T01:58:04.545Z,971.41
2019-03-09T01:59:05.314Z,971.51
2019-03-09T02:00:04.499Z,971.45
2019-03-09T02:01:04.493Z,971.51
2019-03-09T02:02:04.521Z,971.49
2019-03-09T02:03:06.316Z,971.36
2019-03-09T02:04:04.478Z,971.50
2019-03-09T02:05:04.481Z,971.51
2019-03-09T02:06:05.385Z,971.46
2019-03-09T02:07:04.497Z,971.40
2019-03-09T02:08:04.497Z,971.36
2019-03-09T02:09:05.318Z,971.32
2019-03-09T02:10:04.444Z,971.31
2019-03-09T02:11:04.448Z,971.29
2019-03-09T02:12:04.483Z,971.33
2019-03-09T02:13:04.435Z,971.27
2019-03-09T02:14:04.441Z,971.23
2019-03-09T02:15:04.425Z,971.18
2019-03-09T02:16:04.423Z,971.01
2019-03-09T02:17:04.454Z,971.17
2019-03-09T02:18:04.449Z,971.13
2019-03-09T02:19:04.419Z,971.09
2019-03-09T02:20:04.411Z,971.03
2019-03-09T02:21:04.415Z,970.93
2019-03-09T02:22:04.437Z,970.96
2019-03-09T02:23:04.399Z,971.00
2019-03-09T02:24:04.394Z,970.91
2019-03-09T02:25:04.391Z,970.95
2019-03-09T02:26:04.384Z,970.92
2019-03-09T02:27:04.408Z,970.89
2019-03-09T02:28:04.423Z,970.80
2019-03-09T02:29:04.377Z,970.81
2019-03-09T02:30:04.381Z,970.75
2019-03-09T02:31:04.367Z,970.82
2019-03-09T02:32:04.387Z,970.78
2019-03-09T02:33:04.389Z,970.82
2019-03-09T02:34:04.363Z,970.73
2019-03-09T02:35:04.389Z,970.77
2019-03-09T02:36:04.345Z,970.86
2019-03-09T02:37:04.341Z,970.80
2019-03-09T02:38:04.361Z,970.72
2019-03-09T02:39:04.325Z,970.73
2019-03-09T02:40:04.329Z,970.72
2019-03-09T02:41:04.361Z,970.73
2019-03-09T02:42:04.317Z,970.64
2019-03-09T02:43:04.341Z,970.64
2019-03-09T02:44:04.314Z,970.62
2019-03-09T02:45:04.314Z,970.59
2019-03-09T02:46:04.307Z,970.51
2019-03-09T02:47:04.338Z,970.44
2019-03-09T02:48:04.333Z,970.44
2019-03-09T02:49:04.293Z,970.40
2019-03-09T02:50:04.280Z,970.37
2019-03-09T02:51:04.309Z,970.30
2019-03-09T02:52:04.278Z,970.32
2019-03-09T02:53:04.335Z,970.27
2019-03-09T02:54:04.273Z,970.26
2019-03-09T02:55:04.264Z,970.27
2019-03-09T02:56:04.261Z,970.21
2019-03-09T02:57:04.267Z,970.16
2019-03-09T02:58:04.263Z,970.21
2019-03-09T02:59:04.288Z,970.16
2019-03-09T03:00:04.244Z,970.07
2019-03-09T03:01:04.234Z,970.07
2019-03-09T03:02:04.237Z,969.95
2019-03-09T03:03:04.334Z,970.01
2019-03-09T03:04:04.241Z,969.94
2019-03-09T03:05:04.270Z,969.92
2019-03-09T03:06:05.991Z,969.93
2019-03-09T03:07:04.213Z,969.92
2019-03-09T03:08:04.241Z,969.93
2019-03-09T03:09:04.215Z,969.94
2019-03-09T03:10:04.206Z,969.96
2019-03-09T03:11:04.240Z,969.84
2019-03-09T03:12:04.195Z,969.76
2019-03-09T03:13:04.227Z,969.86
2019-03-09T03:14:04.186Z,969.84
2019-03-09T03:15:04.187Z,969.78
2019-03-09T03:16:04.183Z,969.85
2019-03-09T03:17:04.212Z,969.84
2019-03-09T03:18:04.213Z,969.84
2019-03-09T03:19:04.170Z,969.71
2019-03-09T03:20:04.165Z,969.83
2019-03-09T03:21:04.163Z,969.76
2019-03-09T03:22:04.162Z,969.73
2019-03-09T03:23:04.191Z,969.78
2019-03-09T03:24:04.190Z,969.71
2019-03-09T03:25:04.148Z,969.66
2019-03-09T03:26:04.147Z,969.58
2019-03-09T03:27:04.136Z,969.61
2019-03-09T03:28:04.140Z,969.64
2019-03-09T03:29:04.153Z,969.64
2019-03-09T03:30:04.160Z,969.53
2019-03-09T03:31:04.194Z,969.63
2019-03-09T03:32:04.122Z,969.48
2019-03-09T03:33:04.118Z,969.50
2019-03-09T03:34:04.135Z,969.44
2019-03-09T03:35:04.160Z,969.46
2019-03-09T03:36:04.102Z,969.46
2019-03-09T03:37:04.101Z,969.43
2019-03-09T03:38:04.098Z,969.51
2019-03-09T03:39:04.116Z,969.44
2019-03-09T03:40:04.089Z,969.48
2019-03-09T03:41:04.124Z,969.43
2019-03-09T03:42:04.118Z,969.42
2019-03-09T03:43:04.080Z,969.37
2019-03-09T03:44:04.080Z,969.42
2019-03-09T03:45:04.067Z,969.33
2019-03-09T03:46:04.067Z,969.32
2019-03-09T03:47:04.055Z,969.30
2019-03-09T03:48:04.095Z,969.26
2019-03-09T03:49:04.166Z,969.29
2019-03-09T03:50:04.051Z,969.27
2019-03-09T03:51:04.045Z,969.15
2019-03-09T03:52:04.047Z,969.25
2019-03-09T03:53:04.041Z,969.08
2019-03-09T03:54:04.059Z,969.16
2019-03-09T03:55:04.067Z,969.06
2019-03-09T03:56:04.027Z,969.06
2019-03-09T03:57:04.023Z,969.17
2019-03-09T03:58:04.025Z,969.14
2019-03-09T03:59:04.043Z,969.14
2019-03-09T04:00:04.012Z,969.06
2019-03-09T04:01:04.030Z,969.14
2019-03-09T04:02:04.006Z,969.00
2019-03-09T04:03:04.006Z,969.02
2019-03-09T04:04:03.984Z,969.02
2019-03-09T04:05:04.026Z,968.86
2019-03-09T04:06:03.986Z,968.81
2019-03-09T04:07:03.985Z,968.83
2019-03-09T04:08:03.966Z,968.83
2019-03-09T04:09:03.995Z,968.79
2019-03-09T04:10:03.976Z,968.83
2019-03-09T04:11:05.927Z,968.73
2019-03-09T04:12:03.986Z,968.65
2019-03-09T04:13:03.952Z,968.67
2019-03-09T04:14:03.975Z,968.80
2019-03-09T04:15:03.950Z,968.65
2019-03-09T04:16:03.939Z,968.76
2019-03-09T04:17:03.977Z,968.80
2019-03-09T04:18:03.935Z,968.76
2019-03-09T04:19:03.985Z,968.69
2019-03-09T04:20:03.955Z,968.72
2019-03-09T04:21:03.953Z,968.73
2019-03-09T04:22:03.946Z,968.74
2019-03-09T04:23:03.990Z,968.68
2019-03-09T04:24:03.933Z,968.67
2019-03-09T04:25:03.926Z,968.68
2019-03-09T04:26:03.924Z,968.64
2019-03-09T04:27:03.920Z,968.62
2019-03-09T04:28:03.952Z,968.62
2019-03-09T04:29:03.912Z,968.67
2019-03-09T04:30:03.905Z,968.68
2019-03-09T04:31:03.917Z,968.46
2019-03-09T04:32:03.898Z,968.56
2019-03-09T04:33:03.930Z,968.54
2019-03-09T04:34:03.895Z,968.60
2019-03-09T04:35:03.886Z,968.67
2019-03-09T04:36:03.882Z,968.59
2019-03-09T04:37:03.879Z,968.65
2019-03-09T04:38:03.915Z,968.66
2019-03-09T04:39:03.868Z,968.68
2019-03-09T04:40:03.870Z,968.70
2019-03-09T04:41:03.896Z,968.56
2019-03-09T04:42:03.864Z,968.64
2019-03-09T04:43:03.959Z,968.65
2019-03-09T04:44:03.851Z,968.66
2019-03-09T04:45:03.849Z,968.62
2019-03-09T04:46:03.846Z,968.60
2019-03-09T04:47:03.838Z,968.56
2019-03-09T04:48:03.887Z,968.67
2019-03-09T04:49:03.845Z,968.50
2019-03-09T04:50:03.832Z,968.56
2019-03-09T04:51:03.835Z,968.59
2019-03-09T04:52:03.820Z,968.48
2019-03-09T04:53:03.854Z,968.53
2019-03-09T04:54:03.854Z,968.49
2019-03-09T04:55:03.809Z,968.47
2019-03-09T04:56:03.805Z,968.40
2019-03-09T04:57:03.801Z,968.45
2019-03-09T04:58:03.806Z,968.38
2019-03-09T04:59:03.825Z,968.32
2019-03-09T05:00:03.790Z,968.24
2019-03-09T05:01:03.785Z,968.39
2019-03-09T05:02:03.781Z,968.47
2019-03-09T05:03:03.781Z,968.42
2019-03-09T05:04:03.806Z,968.44
2019-03-09T05:05:03.770Z,968.39
2019-03-09T05:06:03.771Z,968.36
2019-03-09T05:07:03.775Z,968.36
2019-03-09T05:08:03.763Z,968.54
2019-03-09T05:09:03.815Z,968.26
2019-03-09T05:10:03.751Z,968.27
2019-03-09T05:11:03.762Z,968.36
2019-03-09T05:12:03.745Z,968.26
2019-03-09T05:13:03.743Z,968.24
2019-03-09T05:14:03.775Z,968.29
2019-03-09T05:15:03.737Z,968.28
2019-03-09T05:16:03.732Z,968.15
2019-03-09T05:17:03.735Z,968.32
2019-03-09T05:18:03.763Z,968.27
2019-03-09T05:19:04.400Z,968.34
2019-03-09T05:20:03.752Z,968.27
2019-03-09T05:21:03.719Z,968.35
2019-03-09T05:22:03.713Z,968.35
2019-03-09T05:23:03.704Z,968.26
2019-03-09T05:24:03.737Z,968.31
2019-03-09T05:25:03.705Z,968.29
2019-03-09T05:26:03.732Z,968.35
2019-03-09T05:27:03.693Z,968.22
2019-03-09T05:28:03.690Z,968.23
2019-03-09T05:29:03.690Z,968.25
2019-03-09T05:30:03.717Z,968.17
2019-03-09T05:31:03.677Z,968.15
2019-03-09T05:32:04.682Z,968.11
2019-03-09T05:33:03.672Z,968.15
2019-03-09T05:34:03.677Z,968.12
2019-03-09T05:35:03.700Z,968.11
2019-03-09T05:36:03.713Z,968.16
2019-03-09T05:37:03.689Z,968.13
2019-03-09T05:38:03.653Z,968.07
2019-03-09T05:39:03.649Z,968.17
2019-03-09T05:40:03.648Z,968.08
2019-03-09T05:41:24.649Z,968.02
2019-03-09T05:42:03.635Z,968.10
2019-03-09T05:43:03.634Z,968.09
2019-03-09T05:44:03.628Z,968.05
2019-03-09T05:45:03.626Z,968.08
2019-03-09T05:46:03.654Z,968.01
2019-03-09T05:47:03.612Z,968.01
2019-03-09T05:48:03.612Z,968.00
2019-03-09T05:49:03.610Z,968.10
2019-03-09T05:50:04.665Z,968.18
2019-03-09T05:51:03.643Z,968.02
2019-03-09T05:52:03.596Z,968.09
2019-03-09T05:53:03.596Z,968.10
2019-03-09T05:54:03.613Z,968.08
2019-03-09T05:55:03.592Z,968.09
2019-03-09T05:56:03.628Z,968.07
2019-03-09T05:57:03.580Z,968.02
2019-03-09T05:58:03.586Z,968.01
2019-03-09T05:59:03.569Z,968.01
2019-03-09T06:00:03.577Z,968.03
2019-03-09T06:01:03.604Z,968.02
2019-03-09T06:02:03.561Z,968.06
2019-03-09T06:03:03.556Z,968.06
2019-03-09T06:04:03.554Z,967.97
2019-03-09T06:05:03.551Z,968.13
2019-03-09T06:06:03.574Z,968.11
2019-03-09T06:07:03.541Z,968.07
2019-03-09T06:08:03.536Z,967.98
2019-03-09T06:09:03.531Z,967.97
2019-03-09T06:10:03.533Z,967.98
2019-03-09T06:11:03.558Z,968.12
2019-03-09T06:12:03.522Z,968.11
2019-03-09T06:13:03.515Z,968.21
2019-03-09T06:14:03.515Z,968.04
2019-03-09T06:15:03.512Z,967.90
2019-03-09T06:16:03.533Z,967.97
2019-03-09T06:17:03.508Z,968.00
2019-03-09T06:18:03.500Z,967.90
2019-03-09T06:19:03.490Z,967.94
2019-03-09T06:20:03.488Z,967.91
2019-03-09T06:21:03.519Z,967.94
2019-03-09T06:22:03.481Z,967.95
2019-03-09T06:23:03.478Z,967.96
2019-03-09T06:24:03.468Z,967.93
2019-03-09T06:25:03.468Z,968.00
2019-03-09T06:26:03.496Z,967.98
2019-03-09T06:27:03.464Z,968.00
2019-03-09T06:28:03.454Z,968.06
2019-03-09T06:29:03.448Z,968.13
2019-03-09T06:30:03.449Z,968.14
2019-03-09T06:31:03.480Z,968.12
2019-03-09T06:32:03.437Z,968.15
2019-03-09T06:33:03.431Z,968.13
2019-03-09T06:34:03.428Z,968.28
2019-03-09T06:35:03.423Z,968.19
2019-03-09T06:36:03.464Z,968.32
2019-03-09T06:37:03.450Z,968.27
2019-03-09T06:38:03.412Z,968.32
2019-03-09T06:39:03.415Z,968.29
2019-03-09T06:40:03.403Z,968.37
2019-03-09T06:41:03.442Z,968.24
2019-03-09T06:42:03.429Z,968.34
2019-03-09T06:43:03.393Z,968.30
2019-03-09T06:44:03.439Z,968.30
2019-03-09T06:45:03.383Z,968.25
2019-03-09T06:46:03.378Z,968.39
2019-03-09T06:47:03.412Z,968.35
2019-03-09T06:48:03.372Z,968.35
2019-03-09T06:49:03.367Z,968.38
2019-03-09T06:50:03.362Z,968.45
2019-03-09T06:51:03.361Z,968.35
2019-03-09T06:52:03.391Z,968.49
2019-03-09T06:53:03.356Z,968.45
2019-03-09T06:54:03.346Z,968.51
2019-03-09T06:55:03.344Z,968.52
2019-03-09T06:56:03.338Z,968.63
2019-03-09T06:57:03.370Z,968.63
2019-03-09T06:58:03.337Z,968.62
2019-03-09T06:59:03.328Z,968.59
2019-03-09T07:00:03.330Z,968.56
2019-03-09T07:01:03.328Z,968.62
2019-03-09T07:02:03.390Z,968.64
2019-03-09T07:03:03.315Z,968.58
2019-03-09T07:04:03.314Z,968.57
2019-03-09T07:05:03.306Z,968.57
2019-03-09T07:06:03.304Z,968.55
2019-03-09T07:07:03.313Z,968.58
2019-03-09T07:08:03.331Z,968.58
2019-03-09T07:09:03.297Z,968.57
2019-03-09T07:10:03.299Z,968.45
2019-03-09T07:11:03.285Z,968.56
2019-03-09T07:12:03.315Z,968.55
2019-03-09T07:13:03.279Z,968.43
2019-03-09T07:14:03.273Z,968.66
2019-03-09T07:15:03.267Z,968.63
2019-03-09T07:16:03.263Z,968.80
2019-03-09T07:17:03.298Z,968.76
2019-03-09T07:18:03.259Z,968.86
2019-03-09T07:19:03.289Z,968.83
2019-03-09T07:20:12.229Z,968.89
2019-03-09T07:21:03.271Z,968.92
2019-03-09T07:22:03.248Z,968.91
2019-03-09T07:23:03.281Z,968.97
2019-03-09T07:24:03.244Z,968.99
2019-03-09T07:25:03.246Z,968.89
2019-03-09T07:26:03.234Z,968.76
2019-03-09T07:27:03.238Z,968.83
2019-03-09T07:28:03.264Z,968.76
2019-03-09T07:29:03.225Z,968.76
2019-03-09T07:30:03.225Z,968.68
2019-03-09T07:31:03.221Z,968.71
2019-03-09T07:32:03.218Z,968.75
2019-03-09T07:33:03.254Z,968.75
2019-03-09T07:34:03.216Z,968.77
2019-03-09T07:35:03.212Z,968.81
2019-03-09T07:36:03.212Z,968.91
2019-03-09T07:37:03.245Z,968.93
2019-03-09T07:38:03.245Z,968.95
2019-03-09T07:39:03.237Z,969.03
2019-03-09T07:40:03.198Z,968.83
2019-03-09T07:41:03.201Z,968.95
2019-03-09T07:42:03.207Z,969.08
2019-03-09T07:43:04.287Z,968.96
2019-03-09T07:44:03.222Z,969.05
2019-03-09T07:45:03.187Z,969.03
2019-03-09T07:46:03.190Z,969.11
2019-03-09T07:47:03.186Z,969.15
2019-03-09T07:48:03.177Z,969.01
2019-03-09T07:49:03.216Z,969.11
2019-03-09T07:50:03.173Z,969.03
2019-03-09T07:51:03.175Z,969.08
2019-03-09T07:52:03.170Z,968.96
2019-03-09T07:53:03.168Z,968.86
2019-03-09T07:54:03.687Z,968.88
2019-03-09T07:55:03.165Z,969.05
2019-03-09T07:56:03.169Z,969.04
2019-03-09T07:57:06.082Z,969.10
2019-03-09T07:58:03.164Z,969.09
2019-03-09T07:59:03.190Z,969.14
2019-03-09T08:00:03.153Z,969.16
2019-03-09T08:01:03.151Z,969.10
2019-03-09T08:02:03.152Z,968.99
2019-03-09T08:03:03.142Z,968.95
2019-03-09T08:04:03.176Z,969.12
2019-03-09T08:05:03.141Z,969.16
2019-03-09T08:06:03.141Z,969.20
2019-03-09T08:07:03.138Z,969.17
2019-03-09T08:08:03.129Z,969.38
2019-03-09T08:09:03.168Z,969.36
2019-03-09T08:10:03.136Z,969.33
2019-03-09T08:11:03.128Z,969.25
2019-03-09T08:12:03.129Z,969.34
2019-03-09T08:13:03.167Z,969.32
2019-03-09T08:14:03.158Z,969.40
2019-03-09T08:15:03.118Z,969.40
2019-03-09T08:16:03.120Z,969.41
2019-03-09T08:17:03.113Z,969.34
2019-03-09T08:18:03.116Z,969.39
2019-03-09T08:19:03.145Z,969.39
2019-03-09T08:20:03.113Z,969.30
2019-03-09T08:21:03.909Z,969.37
2019-03-09T08:22:03.104Z,969.38
2019-03-09T08:23:03.104Z,969.42
2019-03-09T08:24:03.145Z,969.36
2019-03-09T08:25:03.096Z,969.40
2019-03-09T08:26:03.094Z,969.43
2019-03-09T08:27:03.098Z,969.48
2019-03-09T08:28:03.094Z,969.48
2019-03-09T08:29:03.132Z,969.45
2019-03-09T08:30:03.122Z,969.44
2019-03-09T08:31:03.089Z,969.47
2019-03-09T08:32:03.098Z,969.42
2019-03-09T08:33:03.086Z,969.40
2019-03-09T08:34:03.108Z,969.40
2019-03-09T08:35:03.073Z,969.35
2019-03-09T08:36:03.082Z,969.27
2019-03-09T08:37:03.068Z,969.69
2019-03-09T08:38:03.063Z,969.47
2019-03-09T08:39:03.106Z,969.37
2019-03-09T08:40:03.061Z,969.37
2019-03-09T08:41:03.089Z,969.35
2019-03-09T08:42:03.070Z,969.41
2019-03-09T08:43:03.068Z,969.31
2019-03-09T08:44:03.090Z,969.33
2019-03-09T08:45:03.112Z,969.42
2019-03-09T08:46:03.056Z,969.48
2019-03-09T08:47:03.056Z,969.52
2019-03-09T08:48:03.067Z,969.35
2019-03-09T08:49:03.053Z,969.53
2019-03-09T08:50:03.084Z,969.50
2019-03-09T08:51:03.067Z,969.64
2019-03-09T08:52:03.050Z,969.51
2019-03-09T08:53:03.053Z,969.56
2019-03-09T08:54:03.050Z,969.55
2019-03-09T08:55:03.075Z,969.66
2019-03-09T08:56:03.078Z,969.59
2019-03-09T08:57:03.043Z,969.55
2019-03-09T08:58:03.044Z,969.53
2019-03-09T08:59:03.092Z,969.42
2019-03-09T09:00:03.036Z,969.60
2019-03-09T09:01:03.041Z,969.56
2019-03-09T09:02:03.088Z,969.55
2019-03-09T09:03:03.037Z,969.58
2019-03-09T09:04:03.072Z,969.61
2019-03-09T09:05:03.067Z,969.64
2019-03-09T09:06:03.029Z,969.70
2019-03-09T09:07:03.028Z,969.80
2019-03-09T09:08:04.088Z,969.70
2019-03-09T09:09:03.031Z,969.69
2019-03-09T09:10:03.062Z,969.79
2019-03-09T09:11:03.048Z,969.88
2019-03-09T09:12:03.022Z,969.87
2019-03-09T09:13:03.016Z,969.84
2019-03-09T09:14:03.015Z,969.79
2019-03-09T09:15:03.053Z,969.85
2019-03-09T09:16:03.016Z,969.89
2019-03-09T09:17:03.012Z,969.94
2019-03-09T09:18:03.014Z,969.92
2019-03-09T09:19:03.014Z,970.01
2019-03-09T09:20:03.052Z,969.97
2019-03-09T09:21:03.057Z,969.95
2019-03-09T09:22:03.000Z,969.97
2019-03-09T09:23:03.010Z,969.83
2019-03-09T09:24:03.033Z,969.96
2019-03-09T09:25:03.000Z,969.99
2019-03-09T09:26:03.037Z,969.99
2019-03-09T09:27:02.996Z,970.02
2019-03-09T09:28:03.000Z,970.06
2019-03-09T09:29:02.996Z,969.98
2019-03-09T09:30:02.997Z,969.86
2019-03-09T09:31:03.031Z,970.04
2019-03-09T09:32:02.986Z,970.07
2019-03-09T09:33:02.992Z,970.03
2019-03-09T09:34:02.990Z,969.96
2019-03-09T09:35:02.983Z,970.09
2019-03-09T09:36:03.015Z,969.97
2019-03-09T09:37:02.981Z,969.99
2019-03-09T09:38:02.982Z,970.04
2019-03-09T09:39:02.978Z,970.04
2019-03-09T09:40:02.979Z,970.05
2019-03-09T09:41:03.017Z,970.04
2019-03-09T09:42:02.982Z,970.05
2019-03-09T09:43:02.979Z,969.92
2019-03-09T09:44:02.969Z,969.91
2019-03-09T09:45:02.975Z,969.93
2019-03-09T09:46:03.008Z,969.81
2019-03-09T09:47:02.978Z,969.94
2019-03-09T09:48:02.972Z,969.92
2019-03-09T09:49:02.981Z,970.00
2019-03-09T09:50:02.988Z,969.92
2019-03-09T09:51:03.015Z,969.97
2019-03-09T09:52:02.978Z,969.92
2019-03-09T09:53:02.977Z,969.93
2019-03-09T09:54:02.982Z,969.93
2019-03-09T09:55:02.979Z,970.03
2019-03-09T09:56:03.008Z,969.88
2019-03-09T09:57:02.976Z,969.84
2019-03-09T09:58:02.975Z,969.93
2019-03-09T09:59:02.977Z,969.94
2019-03-09T10:00:02.980Z,969.90
2019-03-09T10:01:03.920Z,969.88
2019-03-09T10:02:02.982Z,969.84
2019-03-09T10:03:02.979Z,969.90
2019-03-09T10:04:04.873Z,969.90
2019-03-09T10:05:02.980Z,969.88
2019-03-09T10:06:03.020Z,969.94
2019-03-09T10:07:02.980Z,969.90
2019-03-09T10:08:02.984Z,969.92
2019-03-09T10:09:02.987Z,969.93
2019-03-09T10:10:02.973Z,970.02
2019-03-09T10:11:03.051Z,969.98
2019-03-09T10:12:02.983Z,970.01
2019-03-09T10:13:02.982Z,969.89
2019-03-09T10:14:02.980Z,970.11
2019-03-09T10:15:02.975Z,970.03
2019-03-09T10:16:03.011Z,970.05
2019-03-09T10:17:02.976Z,970.05
2019-03-09T10:18:02.980Z,969.99
2019-03-09T10:19:02.984Z,969.92
2019-03-09T10:20:02.976Z,970.05
2019-03-09T10:21:03.013Z,970.09
2019-03-09T10:22:02.986Z,970.01
2019-03-09T10:23:04.650Z,970.04
2019-03-09T10:24:02.992Z,970.02
2019-03-09T10:25:02.985Z,970.01
2019-03-09T10:26:03.013Z,970.04
2019-03-09T10:27:02.989Z,970.12
2019-03-09T10:28:02.979Z,970.07
2019-03-09T10:29:03.928Z,970.01
2019-03-09T10:30:03.020Z,970.02
2019-03-09T10:31:02.976Z,970.12
2019-03-09T10:32:02.981Z,970.12
2019-03-09T10:33:02.985Z,970.04
2019-03-09T10:34:02.980Z,970.01
2019-03-09T10:35:03.023Z,970.15
2019-03-09T10:36:02.995Z,969.94
2019-03-09T10:37:02.983Z,969.99
2019-03-09T10:38:02.988Z,969.90
2019-03-09T10:39:02.990Z,969.86
2019-03-09T10:40:03.021Z,969.91
2019-03-09T10:41:03.023Z,969.85
2019-03-09T10:42:02.988Z,969.86
2019-03-09T10:43:02.992Z,969.78
2019-03-09T10:44:02.997Z,969.94
2019-03-09T10:45:02.991Z,970.03
2019-03-09T10:46:03.028Z,970.10
2019-03-09T10:47:02.997Z,970.09
2019-03-09T10:48:03.007Z,970.22
2019-03-09T10:49:03.130Z,970.23
2019-03-09T10:50:02.995Z,970.29
2019-03-09T10:51:03.039Z,970.24
2019-03-09T10:52:02.999Z,970.31
2019-03-09T10:53:03.006Z,970.15
2019-03-09T10:54:02.999Z,970.45
2019-03-09T10:55:03.006Z,970.30
2019-03-09T10:56:03.040Z,970.32
2019-03-09T10:57:03.000Z,970.29
2019-03-09T10:58:03.033Z,970.36
2019-03-09T10:59:03.003Z,970.44
2019-03-09T11:00:03.008Z,970.12
2019-03-09T11:01:03.051Z,970.38
2019-03-09T11:02:03.008Z,970.34
2019-03-09T11:03:03.018Z,970.33
2019-03-09T11:04:03.011Z,970.43
2019-03-09T11:05:03.011Z,970.42
2019-03-09T11:06:03.044Z,970.44
2019-03-09T11:07:03.011Z,970.44
2019-03-09T11:08:03.008Z,970.34
2019-03-09T11:09:03.005Z,970.38
2019-03-09T11:10:03.037Z,970.35
2019-03-09T11:11:03.047Z,970.30
2019-03-09T11:12:03.010Z,970.36
2019-03-09T11:13:03.010Z,970.37
2019-03-09T11:14:03.012Z,970.27
2019-03-09T11:15:03.020Z,970.29
2019-03-09T11:16:03.046Z,970.32
2019-03-09T11:17:03.009Z,970.39
2019-03-09T11:18:03.008Z,970.39
2019-03-09T11:19:03.006Z,970.35
2019-03-09T11:20:03.044Z,970.36
2019-03-09T11:21:02.999Z,970.40
2019-03-09T11:22:03.014Z,970.37
2019-03-09T11:23:03.015Z,970.29
2019-03-09T11:24:03.005Z,970.44
2019-03-09T11:25:03.865Z,970.46
2019-03-09T11:26:03.001Z,970.41
2019-03-09T11:27:03.004Z,970.37
2019-03-09T11:28:03.003Z,970.26
2019-03-09T11:29:03.009Z,970.29
2019-03-09T11:30:03.046Z,970.35
2019-03-09T11:31:03.010Z,970.27
2019-03-09T11:32:03.011Z,970.29
2019-03-09T11:33:03.001Z,970.31
2019-03-09T11:34:03.004Z,970.30
2019-03-09T11:35:03.039Z,970.30
2019-03-09T11:36:03.004Z,970.24
2019-03-09T11:37:03.001Z,970.27
2019-03-09T11:38:03.007Z,970.16
2019-03-09T11:39:03.005Z,970.21
2019-03-09T11:40:03.036Z,970.16
2019-03-09T11:41:03.001Z,970.08
2019-03-09T11:42:03.000Z,970.25
2019-03-09T11:43:03.005Z,970.16
2019-03-09T11:44:03.000Z,970.21
2019-03-09T11:45:03.044Z,970.14
2019-03-09T11:46:03.000Z,970.12
2019-03-09T11:47:03.021Z,970.29
2019-03-09T11:48:02.997Z,970.26
2019-03-09T11:49:03.001Z,970.17
2019-03-09T11:50:03.037Z,970.13
2019-03-09T11:51:03.059Z,970.21
2019-03-09T11:52:02.998Z,970.21
2019-03-09T11:53:03.000Z,970.10
2019-03-09T11:54:03.000Z,970.12
2019-03-09T11:55:03.040Z,970.10
2019-03-09T11:56:03.001Z,970.16
2019-03-09T11:57:03.002Z,970.17
2019-03-09T11:58:03.000Z,970.20
2019-03-09T11:59:03.020Z,970.27
2019-03-09T12:00:03.016Z,970.16
2019-03-09T12:01:03.038Z,970.21
2019-03-09T12:02:03.003Z,970.23
2019-03-09T12:03:03.005Z,970.21
2019-03-09T12:04:02.997Z,970.18
2019-03-09T12:05:02.997Z,970.26
2019-03-09T12:06:03.042Z,970.21
2019-03-09T12:07:03.004Z,970.20
2019-03-09T12:08:03.001Z,970.02
2019-03-09T12:09:02.997Z,970.25
2019-03-09T12:10:03.004Z,970.25
2019-03-09T12:11:03.038Z,970.23
2019-03-09T12:12:03.939Z,970.36
2019-03-09T12:13:03.002Z,970.31
2019-03-09T12:14:03.001Z,970.24
2019-03-09T12:15:03.005Z,970.41
2019-03-09T12:16:03.038Z,970.42
2019-03-09T12:17:03.003Z,970.34
2019-03-09T12:18:03.004Z,970.32
2019-03-09T12:19:03.006Z,970.23
2019-03-09T12:20:03.010Z,970.26
2019-03-09T12:21:03.044Z,970.30
2019-03-09T12:22:03.003Z,970.28
2019-03-09T12:23:03.006Z,970.23
2019-03-09T12:24:03.011Z,970.26
2019-03-09T12:25:03.011Z,970.24
2019-03-09T12:26:03.044Z,970.46
2019-03-09T12:27:03.014Z,970.27
2019-03-09T12:28:03.010Z,970.17